Time;durP1;ratioP1;P1;durP2;ratioP2;P2;SDS_P1;SDS_P2;PMS_P1;PMS_P2;Temp;Humidity;BMP_temperature;BMP_pressure;BME280_temperature;BME280_humidity;BME280_pressure;Samples;Min_cycle;Max_cycle;Signal;HPM_P1;HPM_P2
2022/03/10 00:00:43;;;;;;;9.50;6.80;;;20.20;75.50;;;;;;4224867;28;20218;-74
2022/03/10 00:02:45;;;;;;;8.27;6.95;;;20.20;75.40;;;;;;4227081;28;20214;-74
2022/03/10 00:04:48;;;;;;;8.00;6.65;;;20.20;76.30;;;;;;4226254;28;20214;-75
2022/03/10 00:06:50;;;;;;;8.30;6.38;;;20.20;75.50;;;;;;4224984;28;20226;-75
2022/03/10 00:08:52;;;;;;;8.55;6.90;;;20.20;75.50;;;;;;4225918;28;20802;-74
2022/03/10 00:10:54;;;;;;;7.85;7.05;;;20.20;75.50;;;;;;4225888;28;20214;-74
2022/03/10 00:12:58;;;;;;;9.65;6.90;;;20.10;75.40;;;;;;4227033;28;20267;-74
2022/03/10 00:15:01;;;;;;;7.90;6.95;;;20.10;75.40;;;;;;4225080;28;20218;-74
2022/03/10 00:17:03;;;;;;;7.57;6.63;;;20.10;75.40;;;;;;4225157;28;20237;-75
2022/03/10 00:19:05;;;;;;;7.88;6.40;;;20.10;75.60;;;;;;4225468;28;20214;-74
2022/03/10 00:21:08;;;;;;;8.13;6.88;;;20.10;75.60;;;;;;4226312;28;20217;-74
2022/03/10 00:23:10;;;;;;;6.85;6.10;;;20.10;75.40;;;;;;4226094;28;20287;-74
2022/03/10 00:25:13;;;;;;;7.85;6.57;;;20.00;75.30;;;;;;4226076;28;20882;-74
2022/03/10 00:27:16;;;;;;;7.22;6.15;;;20.00;75.30;;;;;;4225002;28;20295;-74
2022/03/10 00:29:19;;;;;;;7.20;6.28;;;20.10;75.40;;;;;;4224575;28;20214;-75
2022/03/10 00:31:22;;;;;;;10.20;6.45;;;20.10;75.50;;;;;;4225452;28;20302;-74
2022/03/10 00:33:24;;;;;;;7.65;6.72;;;20.10;75.50;;;;;;4223811;28;20210;-75
2022/03/10 00:35:27;;;;;;;7.97;6.68;;;20.00;75.30;;;;;;4223655;28;20222;-74
2022/03/10 00:37:30;;;;;;;9.30;6.70;;;20.10;75.50;;;;;;4226107;28;20214;-74
2022/03/10 00:39:32;;;;;;;7.97;6.68;;;20.00;75.30;;;;;;4224796;28;20214;-74
2022/03/10 00:41:34;;;;;;;8.70;7.03;;;20.00;75.80;;;;;;4226358;28;20217;-74
2022/03/10 00:43:37;;;;;;;8.60;6.93;;;20.00;75.70;;;;;;4224381;28;20286;-74
2022/03/10 00:45:41;;;;;;;9.05;7.03;;;19.90;75.70;;;;;;4220944;28;20222;-74
2022/03/10 00:47:43;;;;;;;7.72;6.70;;;20.00;75.90;;;;;;4220635;28;20298;-74
2022/03/10 00:49:46;;;;;;;10.07;6.45;;;20.00;75.80;;;;;;4224647;28;20243;-74
2022/03/10 00:51:50;;;;;;;8.55;6.68;;;20.00;75.70;;;;;;4226333;28;20984;-74
2022/03/10 00:53:53;;;;;;;9.32;6.97;;;19.90;75.60;;;;;;4223164;28;20218;-74
2022/03/10 00:55:55;;;;;;;7.55;6.20;;;20.00;75.70;;;;;;4224425;28;20221;-74
2022/03/10 00:57:57;;;;;;;7.75;6.95;;;19.90;75.70;;;;;;4225520;28;20210;-74
2022/03/10 00:59:59;;;;;;;8.20;6.60;;;19.90;75.60;;;;;;4225317;28;20217;-75
2022/03/10 01:02:03;;;;;;;6.90;5.85;;;19.90;75.90;;;;;;4223597;28;20274;-75
2022/03/10 01:04:06;;;;;;;7.65;6.68;;;19.90;75.80;;;;;;4224931;28;20225;-74
2022/03/10 01:06:08;;;;;;;7.63;6.82;;;19.90;75.80;;;;;;4225633;28;20274;-75
2022/03/10 01:08:10;;;;;;;7.60;6.53;;;19.90;75.80;;;;;;4224155;28;20287;-74
2022/03/10 01:10:14;;;;;;;8.30;6.40;;;19.90;75.70;;;;;;4225257;28;20258;-74
2022/03/10 01:12:16;;;;;;;9.88;7.05;;;19.80;75.60;;;;;;4225169;28;20221;-74
2022/03/10 01:14:19;;;;;;;8.70;6.95;;;19.90;75.80;;;;;;4224784;28;20210;-74
2022/03/10 01:16:21;;;;;;;7.95;6.70;;;19.80;75.70;;;;;;4224952;28;20210;-74
2022/03/10 01:18:25;;;;;;;7.40;6.50;;;19.90;76.20;;;;;;4224941;28;20217;-74
2022/03/10 01:20:27;;;;;;;7.55;6.75;;;19.80;75.80;;;;;;4224166;28;20698;-75
2022/03/10 01:22:30;;;;;;;7.38;6.53;;;19.80;76.30;;;;;;4224106;28;20213;-74
2022/03/10 01:24:32;;;;;;;7.47;6.55;;;19.80;75.80;;;;;;4224147;28;21636;-75
2022/03/10 01:26:35;;;;;;;9.43;6.97;;;19.80;75.80;;;;;;4224374;28;20213;-74
2022/03/10 01:28:37;;;;;;;8.55;6.75;;;19.80;77.00;;;;;;4225547;28;20263;-74
2022/03/10 01:30:40;;;;;;;9.13;6.85;;;19.80;75.80;;;;;;4225553;28;20221;-74
2022/03/10 01:32:42;;;;;;;7.97;6.72;;;19.80;75.70;;;;;;4224838;28;20214;-75
2022/03/10 01:34:46;;;;;;;7.22;5.97;;;19.80;75.60;;;;;;4225211;28;20602;-75
2022/03/10 01:36:48;;;;;;;7.45;6.43;;;19.80;75.70;;;;;;4224879;28;20214;-74
2022/03/10 01:38:50;;;;;;;7.63;6.43;;;19.80;75.50;;;;;;4224039;28;20205;-74
2022/03/10 01:40:53;;;;;;;6.53;5.72;;;19.80;75.80;;;;;;4223240;28;20726;-74
2022/03/10 01:42:55;;;;;;;6.50;5.80;;;19.80;75.90;;;;;;4224486;28;20222;-74
2022/03/10 01:44:57;;;;;;;6.95;6.20;;;19.80;75.70;;;;;;4224528;28;20222;-74
2022/03/10 01:47:01;;;;;;;7.60;6.47;;;19.80;75.90;;;;;;4222151;28;20317;-74
2022/03/10 01:49:05;;;;;;;7.75;6.72;;;19.80;75.90;;;;;;4224571;28;20221;-75
2022/03/10 01:51:09;;;;;;;7.97;6.50;;;19.80;75.80;;;;;;4224078;28;20685;-74
2022/03/10 01:53:11;;;;;;;8.90;6.90;;;19.80;75.80;;;;;;4224915;28;20646;-74
2022/03/10 01:55:15;;;;;;;8.20;6.10;;;19.80;75.60;;;;;;4224500;28;20209;-74
2022/03/10 01:57:18;;;;;;;8.48;6.82;;;19.80;76.20;;;;;;4222746;28;20206;-74
2022/03/10 01:59:22;;;;;;;7.32;6.53;;;19.80;76.00;;;;;;4224815;28;20218;-74
2022/03/10 02:01:24;;;;;;;7.28;6.10;;;19.70;75.60;;;;;;4223886;28;20214;-74
2022/03/10 02:03:27;;;;;;;6.95;6.25;;;19.70;75.70;;;;;;4223610;28;20279;-75
2022/03/10 02:05:31;;;;;;;6.78;6.05;;;19.70;75.50;;;;;;4224267;28;20263;-74
2022/03/10 02:12:15;;;;;;;7.03;6.32;;;19.70;76.60;;;;;;4224732;28;20194;-74
2022/03/10 02:19:03;;;;;;;9.48;6.72;;;19.60;75.50;;;;;;4223336;28;20230;-75
2022/03/10 02:21:05;;;;;;;8.20;6.32;;;19.70;75.50;;;;;;4224464;28;20267;-75
2022/03/10 02:23:11;;;;;;;9.05;6.00;;;19.60;75.60;;;;;;4224336;28;20244;-75
2022/03/10 02:25:16;;;;;;;7.88;6.50;;;19.60;75.80;;;;;;4224619;28;20209;-75
2022/03/10 02:27:21;;;;;;;8.30;6.63;;;19.70;75.70;;;;;;4223784;28;20287;-74
2022/03/10 02:29:23;;;;;;;7.78;6.38;;;19.70;75.80;;;;;;4222375;28;20217;-74
2022/03/10 02:31:26;;;;;;;7.15;6.45;;;19.60;75.60;;;;;;4221910;28;20315;-75
2022/03/10 02:33:28;;;;;;;7.38;6.57;;;19.60;75.70;;;;;;4221633;28;20279;-75
2022/03/10 02:35:30;;;;;;;6.85;6.13;;;19.60;75.80;;;;;;4221633;28;20225;-74
2022/03/10 02:37:33;;;;;;;7.07;6.20;;;19.60;75.70;;;;;;4223446;28;20710;-74
2022/03/10 02:39:37;;;;;;;7.32;6.15;;;19.60;75.50;;;;;;4224896;28;20723;-74
2022/03/10 02:41:39;;;;;;;9.32;7.07;;;19.60;75.60;;;;;;4223963;28;20218;-74
2022/03/10 02:43:42;;;;;;;7.47;6.70;;;19.60;75.40;;;;;;4223839;28;20615;-74
2022/03/10 02:45:44;;;;;;;7.90;6.70;;;19.60;75.40;;;;;;4223749;28;20644;-74
2022/03/10 02:47:46;;;;;;;7.65;6.32;;;19.60;75.60;;;;;;4223173;28;20294;-74
2022/03/10 02:49:49;;;;;;;6.97;6.15;;;19.60;75.50;;;;;;4224209;28;20278;-74
2022/03/10 02:51:51;;;;;;;7.57;6.78;;;19.60;75.60;;;;;;4224032;28;20205;-75
2022/03/10 02:53:54;;;;;;;6.28;5.55;;;19.60;75.50;;;;;;4224650;28;20255;-74
2022/03/10 02:55:57;;;;;;;7.75;6.03;;;19.60;75.60;;;;;;4224651;28;20221;-74
2022/03/10 02:58:00;;;;;;;7.50;6.03;;;19.50;75.40;;;;;;4220702;28;20229;-74
2022/03/10 03:00:02;;;;;;;6.90;6.20;;;19.50;75.30;;;;;;4224089;28;20213;-75
2022/03/10 03:02:05;;;;;;;7.82;6.13;;;19.50;75.50;;;;;;4223217;28;20218;-74
2022/03/10 03:04:08;;;;;;;7.78;6.63;;;19.60;75.50;;;;;;4223103;28;20272;-74
2022/03/10 03:06:10;;;;;;;7.43;6.72;;;19.50;75.40;;;;;;4224095;28;20222;-74
2022/03/10 03:08:12;;;;;;;6.88;6.18;;;19.50;75.40;;;;;;4223364;28;20286;-74
2022/03/10 03:10:15;;;;;;;8.65;6.47;;;19.50;75.30;;;;;;4222575;28;20632;-74
2022/03/10 03:12:19;;;;;;;7.38;6.68;;;19.50;75.50;;;;;;4222688;28;20217;-74
2022/03/10 03:14:22;;;;;;;6.60;6.00;;;19.50;75.60;;;;;;4211400;28;20215;-74
2022/03/10 03:16:25;;;;;;;7.53;6.72;;;19.50;75.40;;;;;;4219697;28;20267;-74
2022/03/10 03:18:27;;;;;;;7.72;6.32;;;19.50;75.80;;;;;;4223419;28;20267;-74
2022/03/10 03:20:30;;;;;;;9.27;6.00;;;19.50;75.50;;;;;;4224170;28;20271;-74
2022/03/10 03:22:32;;;;;;;7.35;6.65;;;19.50;75.70;;;;;;4223218;28;20222;-74
2022/03/10 03:24:34;;;;;;;7.00;6.20;;;19.50;75.60;;;;;;4223265;28;20624;-74
2022/03/10 03:26:37;;;;;;;6.90;5.80;;;19.50;75.40;;;;;;4224788;28;20218;-74
2022/03/10 03:28:41;;;;;;;6.88;6.13;;;19.50;75.60;;;;;;4225699;28;20237;-75
2022/03/10 03:30:43;;;;;;;6.93;6.18;;;19.40;75.50;;;;;;4226467;28;20222;-74
2022/03/10 03:32:46;;;;;;;7.05;6.28;;;19.50;75.60;;;;;;4227472;28;20217;-74
2022/03/10 03:34:48;;;;;;;8.02;6.07;;;19.40;75.50;;;;;;4225855;28;20262;-74
2022/03/10 03:36:50;;;;;;;7.32;6.07;;;19.50;75.70;;;;;;4226375;28;20247;-74
2022/03/10 03:38:53;;;;;;;7.50;6.07;;;19.50;75.50;;;;;;4224060;28;20213;-74
2022/03/10 03:40:55;;;;;;;7.47;6.35;;;19.40;75.50;;;;;;4225935;28;20263;-75
2022/03/10 03:42:58;;;;;;;7.30;6.05;;;19.50;75.70;;;;;;4224060;28;20979;-74
2022/03/10 03:45:02;;;;;;;7.75;6.07;;;19.40;75.40;;;;;;4226717;28;20221;-75
2022/03/10 03:47:04;;;;;;;8.10;6.32;;;19.40;75.50;;;;;;4224897;28;20210;-74
2022/03/10 03:49:07;;;;;;;6.35;5.63;;;19.40;75.40;;;;;;4226057;28;20241;-74
2022/03/10 03:51:09;;;;;;;7.10;6.40;;;19.40;75.30;;;;;;4226418;28;20230;-74
2022/03/10 03:53:11;;;;;;;6.78;6.15;;;19.40;75.30;;;;;;4226418;28;20210;-74
2022/03/10 03:55:14;;;;;;;7.40;6.22;;;19.50;75.50;;;;;;4225935;28;20222;-74
2022/03/10 03:57:16;;;;;;;7.18;6.10;;;19.40;75.50;;;;;;4227059;28;20654;-74
2022/03/10 03:59:20;;;;;;;6.60;5.82;;;19.40;75.70;;;;;;4226427;28;20279;-74
2022/03/10 04:01:24;;;;;;;6.68;6.05;;;19.40;75.40;;;;;;4225654;28;20210;-74
2022/03/10 04:03:26;;;;;;;6.60;5.97;;;19.40;75.20;;;;;;4224216;28;20214;-74
2022/03/10 04:05:28;;;;;;;8.32;6.07;;;19.40;75.50;;;;;;4225858;28;20255;-74
2022/03/10 04:07:31;;;;;;;6.75;5.88;;;19.40;75.70;;;;;;4226303;28;20735;-74
2022/03/10 04:09:33;;;;;;;7.03;6.32;;;19.30;75.50;;;;;;4224571;28;20278;-74
2022/03/10 04:11:37;;;;;;;6.63;5.97;;;19.40;75.50;;;;;;4225960;28;20294;-74
2022/03/10 04:13:39;;;;;;;8.18;6.13;;;19.30;76.20;;;;;;4225929;28;20213;-74
2022/03/10 04:15:41;;;;;;;6.60;5.90;;;19.40;75.50;;;;;;4225754;28;20217;-74
2022/03/10 04:17:45;;;;;;;6.72;6.05;;;19.30;75.20;;;;;;4223857;28;21003;-74
2022/03/10 04:19:49;;;;;;;6.35;5.75;;;19.40;75.80;;;;;;4225566;28;20205;-74
2022/03/10 04:21:51;;;;;;;6.38;5.78;;;19.30;75.20;;;;;;4223820;28;20218;-74
2022/03/10 04:23:53;;;;;;;6.72;6.03;;;19.30;75.60;;;;;;4224001;28;20919;-74
2022/03/10 04:25:57;;;;;;;6.88;5.85;;;19.30;75.50;;;;;;4222843;28;20629;-74
2022/03/10 04:27:59;;;;;;;7.68;6.05;;;19.30;75.30;;;;;;4225802;28;20210;-74
2022/03/10 04:30:02;;;;;;;7.07;5.68;;;19.30;75.40;;;;;;4225122;28;20611;-74
2022/03/10 04:32:05;;;;;;;6.72;6.03;;;19.30;75.50;;;;;;4225221;28;20226;-74
2022/03/10 04:34:09;;;;;;;6.13;5.53;;;19.30;75.50;;;;;;4224514;28;20639;-74
2022/03/10 04:36:13;;;;;;;7.85;6.30;;;19.30;75.60;;;;;;4226479;28;20322;-74
2022/03/10 04:38:15;;;;;;;6.60;5.65;;;19.30;75.50;;;;;;4225972;28;20284;-74
2022/03/10 04:40:17;;;;;;;7.60;6.15;;;19.30;75.50;;;;;;4225634;28;20229;-74
2022/03/10 04:42:20;;;;;;;6.03;5.40;;;19.30;75.40;;;;;;4225927;28;20546;-74
2022/03/10 04:44:22;;;;;;;7.10;5.88;;;19.30;75.60;;;;;;4225931;28;20723;-74
2022/03/10 04:46:24;;;;;;;6.78;5.82;;;19.30;76.30;;;;;;4224666;28;20255;-74
2022/03/10 04:48:27;;;;;;;8.40;6.18;;;19.30;75.50;;;;;;4224735;28;20213;-74
2022/03/10 04:50:31;;;;;;;6.78;6.03;;;19.30;75.70;;;;;;4226050;28;21000;-74
2022/03/10 04:52:34;;;;;;;5.97;5.38;;;19.20;75.60;;;;;;4226797;28;20648;-74
2022/03/10 04:54:36;;;;;;;7.57;6.60;;;19.20;75.50;;;;;;4224783;28;20256;-75
2022/03/10 04:56:39;;;;;;;6.60;5.90;;;19.20;75.40;;;;;;4225607;28;20642;-74
2022/03/10 04:58:41;;;;;;;6.93;5.80;;;19.20;75.60;;;;;;4225908;28;20254;-74
2022/03/10 05:00:43;;;;;;;6.30;5.70;;;19.20;75.60;;;;;;4225892;28;20210;-74
2022/03/10 05:02:47;;;;;;;6.82;6.07;;;19.20;75.60;;;;;;4226000;28;20206;-74
2022/03/10 05:04:49;;;;;;;7.00;6.00;;;19.20;75.50;;;;;;4223459;28;20215;-74
2022/03/10 05:06:53;;;;;;;6.20;5.60;;;19.20;75.80;;;;;;4226196;28;20218;-74
2022/03/10 05:08:55;;;;;;;7.07;6.20;;;19.20;75.60;;;;;;4223970;28;20290;-74
2022/03/10 05:10:58;;;;;;;6.72;6.03;;;19.20;75.60;;;;;;4225784;28;20368;-74
2022/03/10 05:13:01;;;;;;;6.88;6.28;;;19.20;75.50;;;;;;4223641;28;20362;-74
2022/03/10 05:15:04;;;;;;;7.93;6.07;;;19.10;75.60;;;;;;4224966;28;20229;-74
2022/03/10 05:17:07;;;;;;;6.70;6.00;;;19.20;75.80;;;;;;4224989;28;20233;-74
2022/03/10 05:19:09;;;;;;;7.00;5.95;;;19.20;75.50;;;;;;4224160;28;20263;-74
2022/03/10 05:21:12;;;;;;;6.50;5.80;;;19.20;75.60;;;;;;4224877;28;20214;-74
2022/03/10 05:23:15;;;;;;;6.28;5.63;;;19.20;75.70;;;;;;4225158;28;20259;-74
2022/03/10 05:25:19;;;;;;;6.95;5.72;;;19.10;75.70;;;;;;4224122;28;20267;-74
2022/03/10 05:27:21;;;;;;;7.47;6.38;;;19.10;75.50;;;;;;4224504;28;20221;-74
2022/03/10 05:29:24;;;;;;;6.38;5.78;;;19.10;75.60;;;;;;4224604;28;20233;-74
2022/03/10 05:31:26;;;;;;;6.72;5.93;;;19.10;75.50;;;;;;4224747;28;20619;-74
2022/03/10 05:33:29;;;;;;;6.30;5.63;;;19.10;75.60;;;;;;4224194;28;20201;-74
2022/03/10 05:35:31;;;;;;;5.93;5.32;;;19.10;75.40;;;;;;4223190;28;20201;-74
2022/03/10 05:37:37;;;;;;;7.13;6.00;;;19.10;75.50;;;;;;4224370;28;20209;-74
2022/03/10 05:39:42;;;;;;;5.85;5.20;;;19.10;75.50;;;;;;4224641;28;20589;-74
2022/03/10 05:41:44;;;;;;;7.57;5.90;;;19.10;75.60;;;;;;4224657;28;20218;-74
2022/03/10 05:43:46;;;;;;;5.78;5.22;;;19.10;75.70;;;;;;4224905;28;20330;-74
2022/03/10 05:45:49;;;;;;;6.88;5.90;;;19.10;75.60;;;;;;4225096;28;20254;-75
2022/03/10 05:47:52;;;;;;;6.70;6.00;;;19.10;75.60;;;;;;4223154;28;20821;-74
2022/03/10 05:49:54;;;;;;;6.93;5.57;;;19.10;75.40;;;;;;4223886;28;20269;-74
2022/03/10 05:51:57;;;;;;;6.22;5.63;;;19.10;75.50;;;;;;4224056;28;20992;-74
2022/03/10 05:53:59;;;;;;;7.15;5.93;;;19.00;75.60;;;;;;4224115;28;20274;-74
2022/03/10 05:56:03;;;;;;;7.65;6.38;;;18.90;75.40;;;;;;4223884;28;20262;-74
2022/03/10 05:58:05;;;;;;;8.32;5.93;;;18.90;75.40;;;;;;4224782;28;20618;-74
2022/03/10 06:00:10;;;;;;;6.65;5.60;;;18.90;75.20;;;;;;4223768;28;20225;-74
2022/03/10 06:02:12;;;;;;;7.38;5.90;;;19.00;75.20;;;;;;4224404;28;20229;-74
2022/03/10 06:04:14;;;;;;;8.57;6.07;;;19.00;75.50;;;;;;4224902;28;20221;-74
2022/03/10 06:06:17;;;;;;;7.07;6.00;;;19.00;75.50;;;;;;4223650;28;20251;-74
2022/03/10 06:08:19;;;;;;;7.57;6.03;;;19.00;75.90;;;;;;4224375;28;20209;-74
2022/03/10 06:10:22;;;;;;;6.53;5.82;;;19.10;77.20;;;;;;4221296;28;20230;-75
2022/03/10 06:12:28;;;;;;;6.90;5.80;;;19.10;77.80;;;;;;4223817;28;20214;-74
2022/03/10 06:14:31;;;;;;;6.80;5.90;;;19.10;78.30;;;;;;4221303;28;20214;-74
2022/03/10 06:16:34;;;;;;;7.22;5.97;;;19.10;77.70;;;;;;4225197;28;20328;-75
2022/03/10 06:18:36;;;;;;;8.55;6.38;;;19.10;78.80;;;;;;4222700;28;20270;-74
2022/03/10 06:20:38;;;;;;;6.32;5.72;;;19.10;78.60;;;;;;4224228;28;20236;-74
2022/03/10 06:22:41;;;;;;;7.00;5.47;;;19.10;79.00;;;;;;4224726;28;20596;-75
2022/03/10 06:24:44;;;;;;;6.10;5.50;;;19.10;79.00;;;;;;4224301;28;21429;-74
2022/03/10 06:26:47;;;;;;;5.50;4.97;;;19.10;79.30;;;;;;4223117;28;20286;-74
2022/03/10 06:28:50;;;;;;;5.80;5.22;;;19.10;80.00;;;;;;4223626;28;20287;-74
2022/03/10 06:30:53;;;;;;;6.40;5.80;;;19.10;79.70;;;;;;4224606;28;20628;-74
2022/03/10 06:32:55;;;;;;;6.22;5.63;;;19.10;80.00;;;;;;4224020;28;20210;-74
2022/03/10 06:34:59;;;;;;;6.90;5.72;;;19.10;80.00;;;;;;4223153;28;22069;-74
2022/03/10 06:37:01;;;;;;;7.10;6.18;;;19.10;80.10;;;;;;4223347;28;20275;-74
2022/03/10 06:39:06;;;;;;;7.78;5.43;;;19.20;80.50;;;;;;4223822;28;20218;-75
2022/03/10 06:41:08;;;;;;;6.28;5.63;;;19.20;80.40;;;;;;4223524;28;20622;-74
2022/03/10 06:43:11;;;;;;;6.07;5.38;;;19.20;80.80;;;;;;4223695;28;20205;-74
2022/03/10 06:45:14;;;;;;;6.40;5.68;;;19.20;80.30;;;;;;4223111;28;20659;-74
2022/03/10 06:47:17;;;;;;;5.97;5.32;;;19.30;81.30;;;;;;4223787;28;20213;-75
2022/03/10 06:49:20;;;;;;;5.55;4.93;;;19.20;80.90;;;;;;4222730;28;20218;-75
2022/03/10 06:51:23;;;;;;;5.45;4.90;;;19.30;80.90;;;;;;4223709;28;20310;-74
2022/03/10 06:53:25;;;;;;;6.05;5.45;;;19.30;80.80;;;;;;4223951;28;20213;-75
2022/03/10 06:55:28;;;;;;;5.60;4.60;;;19.30;81.20;;;;;;4223873;28;20222;-75
2022/03/10 06:57:30;;;;;;;7.50;5.47;;;19.30;81.00;;;;;;4222640;28;20279;-74
2022/03/10 06:59:32;;;;;;;7.25;5.50;;;19.30;81.10;;;;;;4222974;28;20218;-74
2022/03/10 07:01:36;;;;;;;6.15;5.55;;;19.30;81.20;;;;;;4226806;28;20222;-74
2022/03/10 07:03:39;;;;;;;5.72;5.20;;;19.40;81.30;;;;;;4225010;28;20263;-74
2022/03/10 07:05:41;;;;;;;5.95;5.28;;;19.40;81.50;;;;;;4227988;28;20611;-74
2022/03/10 07:07:44;;;;;;;6.28;5.35;;;19.40;81.80;;;;;;4227168;28;20218;-74
2022/03/10 07:09:46;;;;;;;5.70;5.05;;;19.40;81.60;;;;;;4226914;28;20218;-75
2022/03/10 07:11:48;;;;;;;6.07;4.95;;;19.40;81.60;;;;;;4226678;28;20218;-75
2022/03/10 07:13:51;;;;;;;6.63;5.13;;;19.50;82.00;;;;;;4226336;28;20266;-74
2022/03/10 07:15:53;;;;;;;5.90;5.30;;;19.50;82.00;;;;;;4227268;28;20303;-74
2022/03/10 07:17:57;;;;;;;5.88;5.10;;;19.50;82.10;;;;;;4225381;28;20259;-74
2022/03/10 07:19:59;;;;;;;6.03;5.15;;;19.50;82.10;;;;;;4226059;28;20603;-75
2022/03/10 07:22:02;;;;;;;5.88;5.28;;;19.50;81.70;;;;;;4225518;28;20221;-75
2022/03/10 07:24:06;;;;;;;5.40;4.90;;;19.60;81.80;;;;;;4226940;28;20662;-74
2022/03/10 07:26:10;;;;;;;5.90;5.30;;;19.60;81.80;;;;;;4225710;28;20623;-74
2022/03/10 07:28:12;;;;;;;7.72;5.45;;;19.70;81.90;;;;;;4226732;28;21487;-74
2022/03/10 07:30:14;;;;;;;5.45;4.95;;;19.70;82.10;;;;;;4226449;28;20241;-75
2022/03/10 07:32:17;;;;;;;6.15;5.13;;;19.60;81.80;;;;;;4225127;28;20247;-74
2022/03/10 07:34:21;;;;;;;6.72;5.63;;;19.70;82.60;;;;;;4226970;28;20656;-74
2022/03/10 07:36:23;;;;;;;6.22;5.47;;;19.70;81.60;;;;;;4225669;28;20239;-74
2022/03/10 07:38:26;;;;;;;5.50;5.00;;;19.70;81.90;;;;;;4226037;28;20286;-74
2022/03/10 07:40:28;;;;;;;5.50;4.93;;;19.70;81.80;;;;;;4224108;28;20207;-74
2022/03/10 07:42:30;;;;;;;5.95;5.28;;;19.70;82.00;;;;;;4225720;28;20619;-75
2022/03/10 07:44:33;;;;;;;6.30;5.07;;;19.80;81.90;;;;;;4226106;28;20266;-75
2022/03/10 07:46:35;;;;;;;8.65;5.68;;;19.80;81.80;;;;;;4223705;28;20263;-76
2022/03/10 07:48:38;;;;;;;10.93;6.80;;;19.60;79.50;;;;;;4223311;28;20221;-76
2022/03/10 07:50:41;;;;;;;8.05;6.43;;;19.80;78.10;;;;;;4219509;28;20234;-78
2022/03/10 07:52:44;;;;;;;6.85;5.20;;;19.60;79.60;;;;;;4225936;28;20274;-77
2022/03/10 07:54:47;;;;;;;6.43;5.20;;;19.70;79.50;;;;;;4222884;28;20222;-77
2022/03/10 07:56:50;;;;;;;7.85;5.40;;;19.80;80.40;;;;;;4222498;28;20214;-78
2022/03/10 07:58:52;;;;;;;8.15;5.30;;;19.90;81.00;;;;;;4219841;28;20270;-77
2022/03/10 08:00:55;;;;;;;7.70;5.72;;;20.00;79.70;;;;;;4223238;28;20271;-76
2022/03/10 08:02:57;;;;;;;6.00;5.20;;;20.00;79.70;;;;;;4221781;28;20240;-76
2022/03/10 08:05:00;;;;;;;6.68;5.40;;;20.10;79.70;;;;;;4224276;28;20214;-77
2022/03/10 08:07:04;;;;;;;6.38;4.82;;;20.10;80.10;;;;;;4224132;27;20221;-76
2022/03/10 08:09:06;;;;;;;8.45;5.28;;;20.10;80.60;;;;;;4221049;28;20223;-76
2022/03/10 08:11:09;;;;;;;5.40;4.90;;;20.10;80.70;;;;;;4220124;27;20230;-74
2022/03/10 08:13:11;;;;;;;8.25;5.57;;;20.10;81.00;;;;;;4211141;27;20258;-75
2022/03/10 08:15:15;;;;;;;7.40;5.03;;;20.10;80.50;;;;;;4222898;28;20218;-76
2022/03/10 08:17:17;;;;;;;5.90;4.82;;;20.20;81.20;;;;;;4221642;28;20298;-76
2022/03/10 08:19:23;;;;;;;6.22;5.35;;;20.20;82.00;;;;;;4224996;28;20222;-75
2022/03/10 08:21:25;;;;;;;5.30;4.80;;;20.30;81.20;;;;;;4222908;27;20209;-77
2022/03/10 08:23:29;;;;;;;8.50;5.70;;;20.30;81.70;;;;;;4215834;28;20666;-76
2022/03/10 08:25:31;;;;;;;5.63;5.03;;;20.30;79.40;;;;;;4220459;28;20270;-75
2022/03/10 08:27:34;;;;;;;6.10;5.13;;;20.30;82.50;;;;;;4222767;28;20338;-78
2022/03/10 08:29:36;;;;;;;6.53;4.95;;;20.30;79.60;;;;;;4218816;28;20931;-76
2022/03/10 08:31:38;;;;;;;5.40;4.88;;;20.30;79.70;;;;;;4224853;28;20237;-74
2022/03/10 08:33:41;;;;;;;5.50;5.00;;;20.40;82.10;;;;;;4219447;27;20229;-75
2022/03/10 08:35:43;;;;;;;5.88;4.80;;;20.40;82.40;;;;;;4218508;28;20920;-76
2022/03/10 08:37:45;;;;;;;5.55;4.95;;;20.40;83.70;;;;;;4224056;27;20729;-75
2022/03/10 08:39:53;;;;;;;5.00;4.53;;;20.50;83.80;;;;;;4220929;27;20718;-75
2022/03/10 08:41:56;;;;;;;5.45;4.93;;;20.60;83.90;;;;;;4224902;28;20278;-76
2022/03/10 08:43:59;;;;;;;5.40;4.70;;;20.60;83.50;;;;;;4221748;27;20218;-77
2022/03/10 08:46:02;;;;;;;5.93;4.68;;;20.60;83.70;;;;;;4221665;27;20263;-76
2022/03/10 08:48:05;;;;;;;4.97;4.47;;;20.60;83.90;;;;;;4224642;27;20269;-73
2022/03/10 08:50:08;;;;;;;6.32;5.30;;;20.60;84.30;;;;;;4223903;28;20210;-72
2022/03/10 08:52:14;;;;;;;5.82;5.00;;;20.70;84.40;;;;;;4225181;28;20237;-73
2022/03/10 08:54:16;;;;;;;5.00;4.50;;;20.70;84.30;;;;;;4225322;28;20266;-72
2022/03/10 08:56:20;;;;;;;5.18;4.68;;;20.70;85.00;;;;;;4223634;28;20279;-74
2022/03/10 08:58:24;;;;;;;5.20;4.70;;;20.80;84.80;;;;;;4223091;28;20239;-75
2022/03/10 09:00:30;;;;;;;5.45;4.40;;;20.80;84.70;;;;;;4222162;28;20221;-77
2022/03/10 09:02:34;;;;;;;5.32;4.47;;;20.80;85.00;;;;;;4223945;28;20274;-77
2022/03/10 09:04:45;;;;;;;4.80;4.18;;;20.90;84.70;;;;;;4220852;28;20222;-76
2022/03/10 09:06:47;;;;;;;6.10;4.85;;;20.90;81.30;;;;;;4221985;27;20217;-76
2022/03/10 09:09:13;;;;;;;6.28;5.28;;;20.80;80.60;;;;;;4219700;27;20217;-78
2022/03/10 09:11:20;;;;;;;4.97;4.43;;;20.90;83.30;;;;;;4223011;27;21119;-76
2022/03/10 09:13:22;;;;;;;8.38;4.63;;;20.90;84.90;;;;;;4220695;28;20226;-76
2022/03/10 09:15:26;;;;;;;6.72;4.60;;;20.90;84.60;;;;;;4221250;28;21696;-76
2022/03/10 09:17:29;;;;;;;17.85;5.80;;;20.90;84.70;;;;;;4219581;28;20283;-74
2022/03/10 09:19:31;;;;;;;17.42;5.35;;;20.90;80.80;;;;;;4222318;28;20642;-76
2022/03/10 09:21:33;;;;;;;8.75;4.70;;;20.90;81.30;;;;;;4222029;28;20218;-75
2022/03/10 09:23:36;;;;;;;8.95;4.95;;;21.00;80.20;;;;;;4221773;28;20218;-75
2022/03/10 09:25:39;;;;;;;8.55;4.72;;;21.00;81.90;;;;;;4223150;28;20218;-74
2022/03/10 09:27:43;;;;;;;6.30;4.28;;;21.00;85.00;;;;;;4222306;28;20214;-75
2022/03/10 09:29:46;;;;;;;5.55;4.32;;;21.00;85.50;;;;;;4221412;28;20217;-76
2022/03/10 09:31:48;;;;;;;5.97;4.45;;;21.00;85.60;;;;;;4220794;28;20233;-76
2022/03/10 09:33:52;;;;;;;5.57;4.93;;;21.00;85.30;;;;;;4224715;27;20263;-76
2022/03/10 09:35:56;;;;;;;4.82;4.32;;;21.10;86.20;;;;;;4223912;27;20217;-75
2022/03/10 09:37:58;;;;;;;9.55;4.57;;;21.10;86.20;;;;;;4219544;27;20226;-75
2022/03/10 09:40:00;;;;;;;7.70;4.70;;;21.10;82.20;;;;;;4222755;28;20286;-73
2022/03/10 09:42:06;;;;;;;4.93;4.45;;;21.10;82.00;;;;;;4216673;28;20214;-76
2022/03/10 09:44:14;;;;;;;6.45;4.60;;;21.10;82.30;;;;;;4226161;28;20267;-74
2022/03/10 09:46:17;;;;;;;6.35;5.13;;;21.10;85.40;;;;;;4221606;28;20618;-76
2022/03/10 09:48:19;;;;;;;6.10;4.75;;;21.20;85.00;;;;;;4223611;28;20214;-75
2022/03/10 09:50:22;;;;;;;6.68;4.45;;;21.20;85.50;;;;;;4222551;27;20217;-75
2022/03/10 09:52:25;;;;;;;6.38;4.22;;;21.20;85.70;;;;;;4227081;27;20261;-75
2022/03/10 09:54:27;;;;;;;5.00;4.28;;;21.30;85.60;;;;;;4226229;28;20214;-74
2022/03/10 09:56:30;;;;;;;6.20;4.75;;;21.30;85.50;;;;;;4215922;28;20306;-75
2022/03/10 09:58:32;;;;;;;5.93;4.00;;;21.30;86.30;;;;;;4219168;28;20666;-74
2022/03/10 10:00:36;;;;;;;6.22;4.50;;;21.30;85.90;;;;;;4227537;27;20217;-74
2022/03/10 10:02:40;;;;;;;6.30;5.00;;;21.30;85.50;;;;;;4224217;28;20213;-75
2022/03/10 10:04:43;;;;;;;7.00;4.55;;;21.30;85.00;;;;;;4220538;28;20210;-75
2022/03/10 10:07:02;;;;;;;8.43;4.80;;;21.40;85.60;;;;;;4220616;28;20288;-74
2022/03/10 10:09:04;;;;;;;6.80;4.53;;;21.40;84.90;;;;;;4222262;28;20221;-76
2022/03/10 10:11:07;;;;;;;5.05;4.55;;;21.40;86.30;;;;;;4223731;28;20221;-75
2022/03/10 10:13:09;;;;;;;7.38;4.47;;;21.40;85.00;;;;;;4218893;28;20635;-78
2022/03/10 10:15:32;;;;;;;6.32;4.93;;;21.40;85.50;;;;;;4222973;28;20243;-77
2022/03/10 10:17:39;;;;;;;17.38;5.13;;;21.40;85.20;;;;;;4222523;28;20271;-78
2022/03/10 10:19:43;;;;;;;23.50;5.47;;;21.50;82.20;;;;;;4223142;28;20274;-79
2022/03/10 10:22:12;;;;;;;14.13;5.00;;;21.50;82.20;;;;;;4224791;28;20266;-76
2022/03/10 10:24:18;;;;;;;17.02;5.10;;;21.50;82.50;;;;;;4222388;28;20226;-77
2022/03/10 10:26:26;;;;;;;9.90;5.35;;;21.40;82.80;;;;;;4220991;28;20564;-76
2022/03/10 10:28:31;;;;;;;7.20;4.40;;;21.50;83.40;;;;;;4221558;28;20263;-79
2022/03/10 10:30:33;;;;;;;14.57;4.93;;;21.50;84.70;;;;;;4217342;28;20210;-77
2022/03/10 10:32:48;;;;;;;6.13;4.40;;;21.50;82.50;;;;;;4221914;28;20287;-76
2022/03/10 10:35:02;;;;;;;9.27;4.78;;;21.50;84.40;;;;;;4223513;28;20213;-76
2022/03/10 10:37:05;;;;;;;11.15;5.13;;;21.50;84.40;;;;;;4228143;28;20282;-77
2022/03/10 10:39:09;;;;;;;9.25;4.57;;;21.60;85.00;;;;;;4228352;28;20218;-75
2022/03/10 10:41:20;;;;;;;21.65;5.57;;;21.60;82.40;;;;;;4222634;28;20989;-76
2022/03/10 10:43:22;;;;;;;8.80;4.43;;;21.60;82.70;;;;;;4225069;27;20263;-76
2022/03/10 10:45:31;;;;;;;10.35;4.78;;;21.70;82.70;;;;;;4224991;28;20311;-77
2022/03/10 10:47:35;;;;;;;8.32;4.32;;;21.60;83.60;;;;;;4223110;28;20258;-79
2022/03/10 10:49:39;;;;;;;11.20;4.75;;;21.70;82.70;;;;;;4223532;28;20271;-76